Alexandra, New Zealand
Current Conditions -  °F | °C
As of 5:00 AM on Wednesday 28 Jan 2015 (Local Time) from NZCH Reporting Station
Clear Clear  
Wind Chill: 59°   Ceiling: Unl
Heat Index: 59°   Visibility: 6mi
Dew Point: 57°   Wind: 1mph
Humidity: 94%   Direction: 20°NNE
Pressure: 29.94"   Gusts: NA
Location:  45.25°S, 169.39°E
Report Text: NZCH 271700Z AUTO 02001KT 9999 NCD 15/14 Q1014 NOSIG
Loading
Personal Weather Stations






























Interactive Weather Map New forecast layout! Learn more

10-Day Weather Forecast

Advertisements
Track Severe Weather on mobile